sensor_id;sensor_type;location;lat;lon;timestamp;temperature;humidity
33564;DHT22;19894;48.452;11.494;2022-12-20T00:01:07;18.20;31.10
33564;DHT22;19894;48.452;11.494;2022-12-20T00:03:33;18.20;31.10
33564;DHT22;19894;48.452;11.494;2022-12-20T00:05:59;18.20;31.10
33564;DHT22;19894;48.452;11.494;2022-12-20T00:08:24;18.30;31.20
33564;DHT22;19894;48.452;11.494;2022-12-20T00:10:50;18.20;31.10
33564;DHT22;19894;48.452;11.494;2022-12-20T00:13:16;18.20;31.10
33564;DHT22;19894;48.452;11.494;2022-12-20T00:15:41;18.20;31.10
33564;DHT22;19894;48.452;11.494;2022-12-20T00:18:07;18.30;31.20
33564;DHT22;19894;48.452;11.494;2022-12-20T00:20:32;18.30;31.10
33564;DHT22;19894;48.452;11.494;2022-12-20T00:22:58;18.30;31.10
33564;DHT22;19894;48.452;11.494;2022-12-20T00:25:24;18.30;31.20
33564;DHT22;19894;48.452;11.494;2022-12-20T00:27:49;18.20;31.10
33564;DHT22;19894;48.452;11.494;2022-12-20T00:30:16;18.30;31.20
33564;DHT22;19894;48.452;11.494;2022-12-20T00:32:43;18.30;31.20
33564;DHT22;19894;48.452;11.494;2022-12-20T00:35:09;18.20;31.10
33564;DHT22;19894;48.452;11.494;2022-12-20T00:37:34;18.20;31.20
33564;DHT22;19894;48.452;11.494;2022-12-20T00:40:00;18.20;31.10
33564;DHT22;19894;48.452;11.494;2022-12-20T00:42:25;18.20;31.10
33564;DHT22;19894;48.452;11.494;2022-12-20T00:44:51;18.20;31.10
33564;DHT22;19894;48.452;11.494;2022-12-20T00:47:17;18.20;31.10
33564;DHT22;19894;48.452;11.494;2022-12-20T00:49:42;18.20;31.10
33564;DHT22;19894;48.452;11.494;2022-12-20T00:52:08;18.20;31.20
33564;DHT22;19894;48.452;11.494;2022-12-20T00:54:34;18.20;31.10
33564;DHT22;19894;48.452;11.494;2022-12-20T00:57:00;18.20;31.10
33564;DHT22;19894;48.452;11.494;2022-12-20T00:59:25;18.20;31.10
33564;DHT22;19894;48.452;11.494;2022-12-20T01:01:51;18.20;31.10
33564;DHT22;19894;48.452;11.494;2022-12-20T01:04:17;18.20;31.10
33564;DHT22;19894;48.452;11.494;2022-12-20T01:06:42;18.20;31.10
33564;DHT22;19894;48.452;11.494;2022-12-20T01:09:10;18.20;31.20
33564;DHT22;19894;48.452;11.494;2022-12-20T01:11:36;18.20;31.10
33564;DHT22;19894;48.452;11.494;2022-12-20T01:14:09;18.30;31.20
33564;DHT22;19894;48.452;11.494;2022-12-20T01:16:41;18.30;31.20
33564;DHT22;19894;48.452;11.494;2022-12-20T01:19:10;18.30;31.20
33564;DHT22;19894;48.452;11.494;2022-12-20T01:21:36;18.20;31.10
33564;DHT22;19894;48.452;11.494;2022-12-20T01:24:04;18.30;31.20
33564;DHT22;19894;48.452;11.494;2022-12-20T01:26:29;18.30;31.20
33564;DHT22;19894;48.452;11.494;2022-12-20T01:28:57;18.20;31.10
33564;DHT22;19894;48.452;11.494;2022-12-20T01:31:24;18.30;31.20
33564;DHT22;19894;48.452;11.494;2022-12-20T01:33:51;18.30;31.20
33564;DHT22;19894;48.452;11.494;2022-12-20T01:36:23;18.20;31.10
33564;DHT22;19894;48.452;11.494;2022-12-20T01:39:03;18.20;31.20
33564;DHT22;19894;48.452;11.494;2022-12-20T01:41:30;18.30;31.20
33564;DHT22;19894;48.452;11.494;2022-12-20T01:43:59;18.20;31.10
33564;DHT22;19894;48.452;11.494;2022-12-20T01:46:27;18.20;31.10
33564;DHT22;19894;48.452;11.494;2022-12-20T01:49:21;18.20;31.10
33564;DHT22;19894;48.452;11.494;2022-12-20T01:51:52;18.20;31.10
33564;DHT22;19894;48.452;11.494;2022-12-20T01:54:22;18.20;31.20
33564;DHT22;19894;48.452;11.494;2022-12-20T01:56:58;18.20;31.20
33564;DHT22;19894;48.452;11.494;2022-12-20T01:59:26;18.20;31.20
33564;DHT22;19894;48.452;11.494;2022-12-20T02:01:54;18.20;31.10
33564;DHT22;19894;48.452;11.494;2022-12-20T02:04:22;18.20;31.20
33564;DHT22;19894;48.452;11.494;2022-12-20T02:06:48;18.20;31.10
33564;DHT22;19894;48.452;11.494;2022-12-20T02:09:13;18.20;31.20
33564;DHT22;19894;48.452;11.494;2022-12-20T02:30:38;18.20;31.10
33564;DHT22;19894;48.452;11.494;2022-12-20T02:33:11;18.30;31.20
33564;DHT22;19894;48.452;11.494;2022-12-20T02:35:38;18.30;31.20
33564;DHT22;19894;48.452;11.494;2022-12-20T02:40:57;18.20;31.10
33564;DHT22;19894;48.452;11.494;2022-12-20T02:43:26;18.20;31.10
33564;DHT22;19894;48.452;11.494;2022-12-20T02:46:12;18.20;31.10
33564;DHT22;19894;48.452;11.494;2022-12-20T02:48:39;18.20;31.20
33564;DHT22;19894;48.452;11.494;2022-12-20T02:51:06;18.20;31.20
33564;DHT22;19894;48.452;11.494;2022-12-20T02:53:33;18.20;31.20
33564;DHT22;19894;48.452;11.494;2022-12-20T02:56:11;18.20;31.20
33564;DHT22;19894;48.452;11.494;2022-12-20T03:01:41;18.20;31.40
33564;DHT22;19894;48.452;11.494;2022-12-20T03:04:09;18.20;31.20
33564;DHT22;19894;48.452;11.494;2022-12-20T03:06:35;18.20;31.20
33564;DHT22;19894;48.452;11.494;2022-12-20T03:09:01;18.20;31.20
33564;DHT22;19894;48.452;11.494;2022-12-20T03:11:27;18.20;31.20
33564;DHT22;19894;48.452;11.494;2022-12-20T03:13:52;18.20;31.20
33564;DHT22;19894;48.452;11.494;2022-12-20T03:16:18;18.20;31.20
33564;DHT22;19894;48.452;11.494;2022-12-20T03:18:44;18.30;31.20
33564;DHT22;19894;48.452;11.494;2022-12-20T03:21:10;18.30;31.20
33564;DHT22;19894;48.452;11.494;2022-12-20T03:23:36;18.20;31.20
33564;DHT22;19894;48.452;11.494;2022-12-20T03:26:02;18.20;31.10
33564;DHT22;19894;48.452;11.494;2022-12-20T03:28:27;18.30;31.20
33564;DHT22;19894;48.452;11.494;2022-12-20T03:30:53;18.30;31.20
33564;DHT22;19894;48.452;11.494;2022-12-20T03:33:18;18.30;31.20
33564;DHT22;19894;48.452;11.494;2022-12-20T03:35:46;18.20;31.10
33564;DHT22;19894;48.452;11.494;2022-12-20T03:38:12;18.20;31.20
33564;DHT22;19894;48.452;11.494;2022-12-20T03:40:37;18.20;31.20
33564;DHT22;19894;48.452;11.494;2022-12-20T03:43:03;18.20;31.20
33564;DHT22;19894;48.452;11.494;2022-12-20T03:45:28;18.20;31.20
33564;DHT22;19894;48.452;11.494;2022-12-20T03:47:55;18.20;31.20
33564;DHT22;19894;48.452;11.494;2022-12-20T03:50:20;18.20;31.20
33564;DHT22;19894;48.452;11.494;2022-12-20T03:52:46;18.20;31.20
33564;DHT22;19894;48.452;11.494;2022-12-20T03:55:11;18.20;31.20
33564;DHT22;19894;48.452;11.494;2022-12-20T03:57:37;18.20;31.20
33564;DHT22;19894;48.452;11.494;2022-12-20T04:00:03;18.20;31.20
33564;DHT22;19894;48.452;11.494;2022-12-20T04:02:29;18.20;31.20
33564;DHT22;19894;48.452;11.494;2022-12-20T04:04:55;18.20;31.20
33564;DHT22;19894;48.452;11.494;2022-12-20T04:07:20;18.20;31.20
33564;DHT22;19894;48.452;11.494;2022-12-20T04:09:46;18.20;31.20
33564;DHT22;19894;48.452;11.494;2022-12-20T04:12:11;18.20;31.20
33564;DHT22;19894;48.452;11.494;2022-12-20T04:14:37;18.20;31.20
33564;DHT22;19894;48.452;11.494;2022-12-20T04:17:03;18.20;31.20
33564;DHT22;19894;48.452;11.494;2022-12-20T04:19:29;18.30;31.20
33564;DHT22;19894;48.452;11.494;2022-12-20T04:21:54;18.30;31.20
33564;DHT22;19894;48.452;11.494;2022-12-20T04:24:22;18.20;31.20
33564;DHT22;19894;48.452;11.494;2022-12-20T04:26:48;18.20;31.20
33564;DHT22;19894;48.452;11.494;2022-12-20T04:29:14;18.30;31.20
33564;DHT22;19894;48.452;11.494;2022-12-20T04:31:40;18.20;31.20
33564;DHT22;19894;48.452;11.494;2022-12-20T04:34:06;18.20;31.20
33564;DHT22;19894;48.452;11.494;2022-12-20T04:36:32;18.20;31.20
33564;DHT22;19894;48.452;11.494;2022-12-20T04:38:58;18.20;31.20
33564;DHT22;19894;48.452;11.494;2022-12-20T04:41:23;18.20;31.20
33564;DHT22;19894;48.452;11.494;2022-12-20T04:43:54;18.20;31.20
33564;DHT22;19894;48.452;11.494;2022-12-20T04:46:21;18.20;31.20
33564;DHT22;19894;48.452;11.494;2022-12-20T04:48:47;18.20;31.20
33564;DHT22;19894;48.452;11.494;2022-12-20T04:51:12;18.20;31.20
33564;DHT22;19894;48.452;11.494;2022-12-20T04:53:38;18.20;31.20
33564;DHT22;19894;48.452;11.494;2022-12-20T04:56:22;18.20;31.20
33564;DHT22;19894;48.452;11.494;2022-12-20T04:58:49;18.20;31.20
33564;DHT22;19894;48.452;11.494;2022-12-20T05:01:15;18.20;31.20
33564;DHT22;19894;48.452;11.494;2022-12-20T05:03:41;18.20;31.20
33564;DHT22;19894;48.452;11.494;2022-12-20T05:06:07;18.20;31.20
33564;DHT22;19894;48.452;11.494;2022-12-20T05:08:33;18.20;31.20
33564;DHT22;19894;48.452;11.494;2022-12-20T05:10:59;18.20;31.20
33564;DHT22;19894;48.452;11.494;2022-12-20T05:13:25;18.20;31.20
33564;DHT22;19894;48.452;11.494;2022-12-20T05:15:52;18.20;31.20
33564;DHT22;19894;48.452;11.494;2022-12-20T05:18:18;18.30;31.30
33564;DHT22;19894;48.452;11.494;2022-12-20T05:20:44;18.30;31.20
33564;DHT22;19894;48.452;11.494;2022-12-20T05:23:10;18.30;31.20
33564;DHT22;19894;48.452;11.494;2022-12-20T05:25:54;18.30;31.20
33564;DHT22;19894;48.452;11.494;2022-12-20T05:28:38;18.20;31.20
33564;DHT22;19894;48.452;11.494;2022-12-20T05:31:04;18.20;31.20
33564;DHT22;19894;48.452;11.494;2022-12-20T05:33:30;18.20;31.20
33564;DHT22;19894;48.452;11.494;2022-12-20T05:35:56;18.20;31.20
33564;DHT22;19894;48.452;11.494;2022-12-20T05:38:22;18.30;31.20
33564;DHT22;19894;48.452;11.494;2022-12-20T05:40:49;18.20;31.20
33564;DHT22;19894;48.452;11.494;2022-12-20T05:43:16;18.20;31.20
33564;DHT22;19894;48.452;11.494;2022-12-20T05:45:50;18.20;31.30
33564;DHT22;19894;48.452;11.494;2022-12-20T05:48:17;18.20;31.20
33564;DHT22;19894;48.452;11.494;2022-12-20T05:50:44;18.20;31.30
33564;DHT22;19894;48.452;11.494;2022-12-20T05:53:11;18.20;31.20
33564;DHT22;19894;48.452;11.494;2022-12-20T05:55:37;18.20;31.20
33564;DHT22;19894;48.452;11.494;2022-12-20T05:58:05;18.20;31.30
33564;DHT22;19894;48.452;11.494;2022-12-20T06:00:31;18.20;31.20
33564;DHT22;19894;48.452;11.494;2022-12-20T06:02:57;18.20;31.20
33564;DHT22;19894;48.452;11.494;2022-12-20T06:05:22;18.20;31.20
33564;DHT22;19894;48.452;11.494;2022-12-20T06:07:48;18.20;31.30
33564;DHT22;19894;48.452;11.494;2022-12-20T06:10:13;18.20;31.30
33564;DHT22;19894;48.452;11.494;2022-12-20T06:12:39;18.20;31.20
33564;DHT22;19894;48.452;11.494;2022-12-20T06:15:05;18.30;31.30
33564;DHT22;19894;48.452;11.494;2022-12-20T06:17:30;18.20;31.20
33564;DHT22;19894;48.452;11.494;2022-12-20T06:19:56;18.20;31.20
33564;DHT22;19894;48.452;11.494;2022-12-20T06:22:21;18.20;31.20
33564;DHT22;19894;48.452;11.494;2022-12-20T06:24:47;18.30;31.20
33564;DHT22;19894;48.452;11.494;2022-12-20T06:27:13;18.30;31.30
33564;DHT22;19894;48.452;11.494;2022-12-20T06:29:38;18.30;31.30
33564;DHT22;19894;48.452;11.494;2022-12-20T06:32:04;18.30;31.30
33564;DHT22;19894;48.452;11.494;2022-12-20T06:34:31;18.30;31.30
33564;DHT22;19894;48.452;11.494;2022-12-20T06:36:56;18.20;31.30
33564;DHT22;19894;48.452;11.494;2022-12-20T06:39:22;18.20;31.30
33564;DHT22;19894;48.452;11.494;2022-12-20T06:41:48;18.20;31.20
33564;DHT22;19894;48.452;11.494;2022-12-20T06:44:13;18.20;31.30
33564;DHT22;19894;48.452;11.494;2022-12-20T06:46:39;18.20;31.30
33564;DHT22;19894;48.452;11.494;2022-12-20T06:49:04;18.20;31.20
33564;DHT22;19894;48.452;11.494;2022-12-20T06:51:30;18.20;31.30
33564;DHT22;19894;48.452;11.494;2022-12-20T06:53:56;18.20;31.20
33564;DHT22;19894;48.452;11.494;2022-12-20T06:56:21;18.20;31.20
33564;DHT22;19894;48.452;11.494;2022-12-20T06:58:47;18.20;31.30
33564;DHT22;19894;48.452;11.494;2022-12-20T07:01:13;18.20;31.30
33564;DHT22;19894;48.452;11.494;2022-12-20T07:03:38;18.20;31.30
33564;DHT22;19894;48.452;11.494;2022-12-20T07:06:04;18.20;31.30
33564;DHT22;19894;48.452;11.494;2022-12-20T07:08:30;18.20;31.30
33564;DHT22;19894;48.452;11.494;2022-12-20T07:10:55;18.20;31.30
33564;DHT22;19894;48.452;11.494;2022-12-20T07:13:21;18.30;31.40
33564;DHT22;19894;48.452;11.494;2022-12-20T07:15:47;18.20;31.30
33564;DHT22;19894;48.452;11.494;2022-12-20T07:18:13;18.20;31.30
33564;DHT22;19894;48.452;11.494;2022-12-20T07:20:39;18.20;31.30
33564;DHT22;19894;48.452;11.494;2022-12-20T07:23:05;18.30;31.40
33564;DHT22;19894;48.452;11.494;2022-12-20T07:25:30;18.20;31.30
33564;DHT22;19894;48.452;11.494;2022-12-20T07:27:56;18.30;31.30
33564;DHT22;19894;48.452;11.494;2022-12-20T07:30:22;18.20;31.30
33564;DHT22;19894;48.452;11.494;2022-12-20T07:32:47;18.30;31.40
33564;DHT22;19894;48.452;11.494;2022-12-20T07:35:14;18.20;31.30
33564;DHT22;19894;48.452;11.494;2022-12-20T07:37:40;18.20;31.30
33564;DHT22;19894;48.452;11.494;2022-12-20T07:40:07;18.20;31.30
33564;DHT22;19894;48.452;11.494;2022-12-20T07:42:33;18.20;31.40
33564;DHT22;19894;48.452;11.494;2022-12-20T07:44:59;18.30;31.40
33564;DHT22;19894;48.452;11.494;2022-12-20T07:47:26;18.20;31.40
33564;DHT22;19894;48.452;11.494;2022-12-20T07:49:52;18.20;31.40
33564;DHT22;19894;48.452;11.494;2022-12-20T07:52:20;18.20;31.40
33564;DHT22;19894;48.452;11.494;2022-12-20T07:54:50;18.20;31.40
33564;DHT22;19894;48.452;11.494;2022-12-20T07:57:25;18.20;31.40
33564;DHT22;19894;48.452;11.494;2022-12-20T07:59:56;18.20;31.40
33564;DHT22;19894;48.452;11.494;2022-12-20T08:02:32;18.20;31.40
33564;DHT22;19894;48.452;11.494;2022-12-20T08:05:00;18.20;31.40
33564;DHT22;19894;48.452;11.494;2022-12-20T08:07:27;18.20;31.40
33564;DHT22;19894;48.452;11.494;2022-12-20T08:09:54;18.20;31.40
33564;DHT22;19894;48.452;11.494;2022-12-20T08:12:20;18.30;31.50
33564;DHT22;19894;48.452;11.494;2022-12-20T08:14:46;18.30;31.40
33564;DHT22;19894;48.452;11.494;2022-12-20T08:17:12;18.20;31.40
33564;DHT22;19894;48.452;11.494;2022-12-20T08:19:37;18.30;31.40
33564;DHT22;19894;48.452;11.494;2022-12-20T08:22:03;18.30;31.40
33564;DHT22;19894;48.452;11.494;2022-12-20T08:24:29;18.30;31.40
33564;DHT22;19894;48.452;11.494;2022-12-20T08:26:55;18.20;31.40
33564;DHT22;19894;48.452;11.494;2022-12-20T08:29:22;18.20;31.40
33564;DHT22;19894;48.452;11.494;2022-12-20T08:31:47;18.20;31.40
33564;DHT22;19894;48.452;11.494;2022-12-20T08:34:13;18.20;31.40
33564;DHT22;19894;48.452;11.494;2022-12-20T08:36:39;18.20;31.40
33564;DHT22;19894;48.452;11.494;2022-12-20T08:39:05;18.20;31.40
33564;DHT22;19894;48.452;11.494;2022-12-20T08:41:32;18.20;31.40
33564;DHT22;19894;48.452;11.494;2022-12-20T08:43:58;18.20;31.40
33564;DHT22;19894;48.452;11.494;2022-12-20T08:46:24;18.20;31.40
33564;DHT22;19894;48.452;11.494;2022-12-20T08:48:49;18.30;31.50
33564;DHT22;19894;48.452;11.494;2022-12-20T08:51:15;18.20;31.50
33564;DHT22;19894;48.452;11.494;2022-12-20T08:53:40;18.20;31.50
33564;DHT22;19894;48.452;11.494;2022-12-20T08:56:12;18.20;31.50
33564;DHT22;19894;48.452;11.494;2022-12-20T08:58:39;18.20;31.50
33564;DHT22;19894;48.452;11.494;2022-12-20T09:01:06;18.20;31.50
33564;DHT22;19894;48.452;11.494;2022-12-20T09:03:33;18.20;31.50
33564;DHT22;19894;48.452;11.494;2022-12-20T09:05:59;18.20;31.50
33564;DHT22;19894;48.452;11.494;2022-12-20T09:08:25;18.20;31.50
33564;DHT22;19894;48.452;11.494;2022-12-20T09:10:51;18.20;31.50
33564;DHT22;19894;48.452;11.494;2022-12-20T09:13:17;18.20;31.50
33564;DHT22;19894;48.452;11.494;2022-12-20T09:15:43;18.30;31.50
33564;DHT22;19894;48.452;11.494;2022-12-20T09:18:09;18.30;31.60
33564;DHT22;19894;48.452;11.494;2022-12-20T09:20:35;18.30;31.60
33564;DHT22;19894;48.452;11.494;2022-12-20T09:23:06;18.30;31.50
33564;DHT22;19894;48.452;11.494;2022-12-20T09:25:32;18.20;31.50
33564;DHT22;19894;48.452;11.494;2022-12-20T09:27:57;18.20;31.50
33564;DHT22;19894;48.452;11.494;2022-12-20T09:30:23;18.20;31.50
33564;DHT22;19894;48.452;11.494;2022-12-20T09:32:49;18.20;31.50
33564;DHT22;19894;48.452;11.494;2022-12-20T09:35:15;18.30;31.60
33564;DHT22;19894;48.452;11.494;2022-12-20T09:37:40;18.20;31.60
33564;DHT22;19894;48.452;11.494;2022-12-20T09:40:08;18.20;31.50
33564;DHT22;19894;48.452;11.494;2022-12-20T09:42:35;18.20;31.50
33564;DHT22;19894;48.452;11.494;2022-12-20T09:45:06;18.20;31.60
33564;DHT22;19894;48.452;11.494;2022-12-20T09:47:34;18.20;31.60
33564;DHT22;19894;48.452;11.494;2022-12-20T09:50:01;18.20;31.60
33564;DHT22;19894;48.452;11.494;2022-12-20T09:52:38;18.30;31.70
33564;DHT22;19894;48.452;11.494;2022-12-20T09:57:54;18.20;31.60
33564;DHT22;19894;48.452;11.494;2022-12-20T10:00:22;18.20;31.70
33564;DHT22;19894;48.452;11.494;2022-12-20T10:02:48;18.20;31.60
33564;DHT22;19894;48.452;11.494;2022-12-20T10:05:14;18.20;31.70
33564;DHT22;19894;48.452;11.494;2022-12-20T10:07:59;18.20;31.60
33564;DHT22;19894;48.452;11.494;2022-12-20T10:24:03;18.20;31.70
33564;DHT22;19894;48.452;11.494;2022-12-20T10:26:32;18.20;31.70
33564;DHT22;19894;48.452;11.494;2022-12-20T10:28:58;18.30;31.70
33564;DHT22;19894;48.452;11.494;2022-12-20T10:31:24;18.20;31.70
33564;DHT22;19894;48.452;11.494;2022-12-20T10:33:50;18.30;31.80
33564;DHT22;19894;48.452;11.494;2022-12-20T10:36:20;18.20;31.70
33564;DHT22;19894;48.452;11.494;2022-12-20T10:38:49;18.30;31.70
33564;DHT22;19894;48.452;11.494;2022-12-20T10:41:18;18.30;31.80
33564;DHT22;19894;48.452;11.494;2022-12-20T10:43:53;18.30;31.80
33564;DHT22;19894;48.452;11.494;2022-12-20T10:46:21;18.20;31.80
33564;DHT22;19894;48.452;11.494;2022-12-20T10:48:47;18.20;31.80
33564;DHT22;19894;48.452;11.494;2022-12-20T10:51:16;18.20;31.80
33564;DHT22;19894;48.452;11.494;2022-12-20T10:53:58;18.20;31.80
33564;DHT22;19894;48.452;11.494;2022-12-20T10:58:57;18.20;31.80
33564;DHT22;19894;48.452;11.494;2022-12-20T11:01:35;18.20;31.90
33564;DHT22;19894;48.452;11.494;2022-12-20T11:04:06;18.20;31.80
33564;DHT22;19894;48.452;11.494;2022-12-20T11:06:46;18.20;31.90
33564;DHT22;19894;48.452;11.494;2022-12-20T11:09:36;18.20;31.90
33564;DHT22;19894;48.452;11.494;2022-12-20T11:12:13;18.20;31.90
33564;DHT22;19894;48.452;11.494;2022-12-20T11:14:40;18.20;31.80
33564;DHT22;19894;48.452;11.494;2022-12-20T11:17:27;18.20;31.90
33564;DHT22;19894;48.452;11.494;2022-12-20T11:20:10;18.20;31.80
33564;DHT22;19894;48.452;11.494;2022-12-20T11:26:06;18.20;31.80
33564;DHT22;19894;48.452;11.494;2022-12-20T11:34:17;18.20;31.80
33564;DHT22;19894;48.452;11.494;2022-12-20T11:39:36;18.20;31.80
33564;DHT22;19894;48.452;11.494;2022-12-20T11:45:14;18.20;31.90
33564;DHT22;19894;48.452;11.494;2022-12-20T11:51:01;18.20;31.90
33564;DHT22;19894;48.452;11.494;2022-12-20T11:53:41;18.20;31.90
33564;DHT22;19894;48.452;11.494;2022-12-20T11:56:12;18.20;32.00
33564;DHT22;19894;48.452;11.494;2022-12-20T12:01:20;18.20;32.00
33564;DHT22;19894;48.452;11.494;2022-12-20T12:04:17;18.20;32.00
33564;DHT22;19894;48.452;11.494;2022-12-20T12:06:50;18.20;32.00
33564;DHT22;19894;48.452;11.494;2022-12-20T12:09:57;18.20;32.00
33564;DHT22;19894;48.452;11.494;2022-12-20T12:12:43;18.20;32.00
33564;DHT22;19894;48.452;11.494;2022-12-20T12:18:14;18.20;32.10
33564;DHT22;19894;48.452;11.494;2022-12-20T12:23:31;18.20;32.10
33564;DHT22;19894;48.452;11.494;2022-12-20T12:26:09;18.20;32.10
33564;DHT22;19894;48.452;11.494;2022-12-20T12:28:35;18.20;32.10
33564;DHT22;19894;48.452;11.494;2022-12-20T12:31:11;18.20;32.10
33564;DHT22;19894;48.452;11.494;2022-12-20T12:36:53;18.20;32.10
33564;DHT22;19894;48.452;11.494;2022-12-20T12:44:58;18.30;32.10
33564;DHT22;19894;48.452;11.494;2022-12-20T12:47:59;18.30;32.10
33564;DHT22;19894;48.452;11.494;2022-12-20T12:50:27;18.20;32.10
33564;DHT22;19894;48.452;11.494;2022-12-20T13:11:43;18.20;32.20
33564;DHT22;19894;48.452;11.494;2022-12-20T13:19:37;18.20;32.30
33564;DHT22;19894;48.452;11.494;2022-12-20T13:22:17;18.20;32.30
33564;DHT22;19894;48.452;11.494;2022-12-20T13:24:56;18.20;32.30
33564;DHT22;19894;48.452;11.494;2022-12-20T13:27:36;18.20;32.30
33564;DHT22;19894;48.452;11.494;2022-12-20T13:40:38;18.30;32.30
33564;DHT22;19894;48.452;11.494;2022-12-20T13:51:05;18.30;32.30
33564;DHT22;19894;48.452;11.494;2022-12-20T13:53:32;18.20;32.30
33564;DHT22;19894;48.452;11.494;2022-12-20T13:55:57;18.20;32.30
33564;DHT22;19894;48.452;11.494;2022-12-20T13:58:33;18.20;32.30
33564;DHT22;19894;48.452;11.494;2022-12-20T14:01:06;18.20;32.30
33564;DHT22;19894;48.452;11.494;2022-12-20T14:03:40;18.20;32.40
33564;DHT22;19894;48.452;11.494;2022-12-20T14:06:09;18.20;32.90
33564;DHT22;19894;48.452;11.494;2022-12-20T14:08:43;18.20;32.40
33564;DHT22;19894;48.452;11.494;2022-12-20T14:13:41;18.20;32.40
33564;DHT22;19894;48.452;11.494;2022-12-20T14:16:14;18.20;32.40
33564;DHT22;19894;48.452;11.494;2022-12-20T14:18:40;18.20;32.40
33564;DHT22;19894;48.452;11.494;2022-12-20T14:21:07;18.20;32.40
33564;DHT22;19894;48.452;11.494;2022-12-20T14:23:40;18.20;32.40
33564;DHT22;19894;48.452;11.494;2022-12-20T14:26:32;18.20;32.40
33564;DHT22;19894;48.452;11.494;2022-12-20T14:28:57;18.20;32.40
33564;DHT22;19894;48.452;11.494;2022-12-20T14:34:25;18.30;32.40
33564;DHT22;19894;48.452;11.494;2022-12-20T14:36:51;18.20;32.40
33564;DHT22;19894;48.452;11.494;2022-12-20T14:39:37;18.20;32.40
33564;DHT22;19894;48.452;11.494;2022-12-20T14:44:34;18.20;32.40
33564;DHT22;19894;48.452;11.494;2022-12-20T14:47:10;18.30;32.50
33564;DHT22;19894;48.452;11.494;2022-12-20T14:49:38;18.30;32.50
33564;DHT22;19894;48.452;11.494;2022-12-20T14:52:16;18.20;32.40
33564;DHT22;19894;48.452;11.494;2022-12-20T14:57:22;18.20;32.50
33564;DHT22;19894;48.452;11.494;2022-12-20T15:02:56;18.20;32.50
33564;DHT22;19894;48.452;11.494;2022-12-20T15:11:15;18.20;32.50
33564;DHT22;19894;48.452;11.494;2022-12-20T15:13:36;18.20;32.50
33564;DHT22;19894;48.452;11.494;2022-12-20T15:16:04;18.20;32.60
33564;DHT22;19894;48.452;11.494;2022-12-20T15:18:31;18.20;32.60
33564;DHT22;19894;48.452;11.494;2022-12-20T15:21:04;18.20;32.60
33564;DHT22;19894;48.452;11.494;2022-12-20T15:23:30;18.20;32.60
33564;DHT22;19894;48.452;11.494;2022-12-20T15:25:55;18.20;32.50
33564;DHT22;19894;48.452;11.494;2022-12-20T15:28:23;18.20;32.60
33564;DHT22;19894;48.452;11.494;2022-12-20T15:30:50;18.20;32.60
33564;DHT22;19894;48.452;11.494;2022-12-20T15:33:23;18.20;32.60
33564;DHT22;19894;48.452;11.494;2022-12-20T15:35:49;18.20;32.50
33564;DHT22;19894;48.452;11.494;2022-12-20T15:38:18;18.20;32.50
33564;DHT22;19894;48.452;11.494;2022-12-20T15:40:46;18.20;32.50
33564;DHT22;19894;48.452;11.494;2022-12-20T15:43:14;18.20;32.50
33564;DHT22;19894;48.452;11.494;2022-12-20T15:45:41;18.30;32.60
33564;DHT22;19894;48.452;11.494;2022-12-20T15:48:14;18.20;32.50
33564;DHT22;19894;48.452;11.494;2022-12-20T15:50:43;18.20;32.60
33564;DHT22;19894;48.452;11.494;2022-12-20T15:53:14;18.30;32.60
33564;DHT22;19894;48.452;11.494;2022-12-20T15:55:39;18.20;32.60
33564;DHT22;19894;48.452;11.494;2022-12-20T15:58:05;18.20;32.60
33564;DHT22;19894;48.452;11.494;2022-12-20T16:00:31;18.20;32.60
33564;DHT22;19894;48.452;11.494;2022-12-20T16:02:56;18.20;32.60
33564;DHT22;19894;48.452;11.494;2022-12-20T16:05:23;18.30;32.70
33564;DHT22;19894;48.452;11.494;2022-12-20T16:07:49;18.20;32.60
33564;DHT22;19894;48.452;11.494;2022-12-20T16:10:14;18.20;32.70
33564;DHT22;19894;48.452;11.494;2022-12-20T16:12:43;18.20;32.70
33564;DHT22;19894;48.452;11.494;2022-12-20T16:15:20;18.20;32.70
33564;DHT22;19894;48.452;11.494;2022-12-20T16:17:46;18.30;32.80
33564;DHT22;19894;48.452;11.494;2022-12-20T16:20:11;18.20;32.70
33564;DHT22;19894;48.452;11.494;2022-12-20T16:22:37;18.20;32.70
33564;DHT22;19894;48.452;11.494;2022-12-20T16:25:03;18.20;32.70
33564;DHT22;19894;48.452;11.494;2022-12-20T16:27:29;18.30;32.70
33564;DHT22;19894;48.452;11.494;2022-12-20T16:29:54;18.20;32.70
33564;DHT22;19894;48.452;11.494;2022-12-20T16:32:20;18.20;32.70
33564;DHT22;19894;48.452;11.494;2022-12-20T16:34:49;18.30;32.70
33564;DHT22;19894;48.452;11.494;2022-12-20T16:37:15;18.20;32.60
33564;DHT22;19894;48.452;11.494;2022-12-20T16:39:41;18.30;32.70
33564;DHT22;19894;48.452;11.494;2022-12-20T16:42:15;18.20;32.60
33564;DHT22;19894;48.452;11.494;2022-12-20T16:44:42;18.20;32.60
33564;DHT22;19894;48.452;11.494;2022-12-20T16:47:09;18.20;32.60
33564;DHT22;19894;48.452;11.494;2022-12-20T16:49:35;18.30;32.70
33564;DHT22;19894;48.452;11.494;2022-12-20T16:52:02;18.30;32.70
33564;DHT22;19894;48.452;11.494;2022-12-20T16:54:29;18.30;32.70
33564;DHT22;19894;48.452;11.494;2022-12-20T16:56:54;18.30;32.70
33564;DHT22;19894;48.452;11.494;2022-12-20T16:59:21;18.20;32.70
33564;DHT22;19894;48.452;11.494;2022-12-20T17:01:48;18.20;32.70
33564;DHT22;19894;48.452;11.494;2022-12-20T17:04:17;18.20;32.70
33564;DHT22;19894;48.452;11.494;2022-12-20T17:06:43;18.20;32.70
33564;DHT22;19894;48.452;11.494;2022-12-20T17:09:09;18.20;32.70
33564;DHT22;19894;48.452;11.494;2022-12-20T17:11:35;18.20;32.70
33564;DHT22;19894;48.452;11.494;2022-12-20T17:14:02;18.20;32.80
33564;DHT22;19894;48.452;11.494;2022-12-20T17:16:28;18.20;32.80
33564;DHT22;19894;48.452;11.494;2022-12-20T17:18:54;18.20;32.80
33564;DHT22;19894;48.452;11.494;2022-12-20T17:23:52;18.20;32.80
33564;DHT22;19894;48.452;11.494;2022-12-20T17:26:28;18.20;32.70
33564;DHT22;19894;48.452;11.494;2022-12-20T17:28:55;18.20;32.80
33564;DHT22;19894;48.452;11.494;2022-12-20T17:31:30;18.20;32.80
33564;DHT22;19894;48.452;11.494;2022-12-20T17:34:00;18.30;32.80
33564;DHT22;19894;48.452;11.494;2022-12-20T17:36:26;18.20;32.70
33564;DHT22;19894;48.452;11.494;2022-12-20T17:38:52;18.30;32.80
33564;DHT22;19894;48.452;11.494;2022-12-20T17:43:50;18.20;32.70
33564;DHT22;19894;48.452;11.494;2022-12-20T17:46:16;18.30;32.70
33564;DHT22;19894;48.452;11.494;2022-12-20T17:48:42;18.20;32.70